x

Cape Suckling - 35 Nm Se Of Kayak Is, Ak (46082) Wave Buoy

5:50am - Fri 22nd May 2015 All times are AKDT. -8 hours from GMT.

  • Sig Wave height 6.2ft
  • Peak Period 10s
  • Average Period 6s
  • Wind
    20mph, 22mph gusts
  • Air Temp 46°f
  • Sea Pressure 1021.6mb
  • Cape Suckling - 35 Nm Se Of Kayak Is, Ak
  • Cape Suckling - 35 Nm Se Of Kayak Is, Ak

More Historic Weather Station data

Upgrade to MSW Pro to gain access to the past 30 days of data for over 8000 Wavebouys and Weather Stations around the globe.

Join Pro

Comparision Forecast

View Surf forecast
   
Fri 05/22 5:50am 6ft 10s 6s 20 22 mph 1021.6mb 46f
4:50am 6ft 10s 5s 20 25 mph 1021.5mb 46f
3:50am 6ft 10s 6s 20 22 mph 1021.7mb 46f
2:50am 6ft 9s 5s 20 25 mph 1021.5mb 45f
1:50am 6ft 10s 6s 20 22 mph 1021.7mb 46f
12:50am 6ft 10s 5s 20 25 mph 1021.6mb 46f
Thu 05/21 11:50pm 6ft 10s 5s 20 22 mph 1021.3mb 47f
10:50pm 5.5ft 5s 5s 20 22 mph 1021.3mb 47f
9:50pm 6ft 10s 5s 22 27 mph 1021mb 47f
8:50pm 6ft 10s 5s 22 27 mph 1020.7mb 48f
7:50pm 6ft 10s 5s 20 25 mph 1020.8mb 49f
6:50pm 6.5ft 10s 5s 22 27 mph 1020.8mb 48f
5:50pm 6ft 9s 5s 22 27 mph 1021.2mb 49f
4:50pm 5.5ft 9s 5s 20 25 mph 1021.3mb 49f
3:50pm 5ft 10s 5s 20 25 mph 1021.4mb 49f
2:50pm 4.5ft 8s 5s 20 22 mph 1021.5mb 49f
1:50pm 4ft 5s 4s 18 20 mph 1021.7mb 49f
12:50pm 4.5ft 8s 5s 18 20 mph 1021.9mb 49f
11:50am 4.5ft 5s 4s 18 22 mph 1022.2mb 49f
10:50am 4ft 5s 4s 18 22 mph 1022.2mb 48f
9:50am 3.5ft 4s 4s 20 22 mph 1022.1mb 48f
8:50am 4ft 8s 4s 18 25 mph 1022.1mb 48f
7:50am 3.5ft 9s 4s 18 22 mph 1022mb 47f
6:50am 3.5ft 4s 4s 18 22 mph 1022mb 48f
5:50am 3.5ft 4s 4s 18 22 mph 1021.7mb 48f
4:50am 4ft 4s 4s 18 20 mph 1021.8mb 48f
3:50am 4ft 5s 4s 18 22 mph 1022.2mb 48f
2:50am 3.5ft 4s 4s 18 22 mph 1022.4mb 48f
1:50am 3.5ft 4s 4s 18 22 mph 1022.4mb 48f
12:50am 3.5ft 4s 4s 18 22 mph 1022.4mb 48f
Wed 05/20 11:50pm 4ft 5s 4s 18 22 mph 1022.4mb 48f
10:50pm 4ft 5s 4s 18 22 mph 1022.7mb 48f
9:50pm 3.5ft 5s 4s 18 22 mph 1022.6mb 48f
8:50pm 4ft 4s 4s 20 22 mph 1022.6mb 47f
7:50pm 3.5ft 4s 4s 18 22 mph 1022.9mb 47f
6:50pm 3.5ft 4s 4s 20 22 mph 1023mb 47f
5:50pm 4ft 4s 4s 18 22 mph 1023.2mb 47f
4:50pm 3.5ft 4s 4s 18 22 mph 1023.4mb 47f
3:50pm 3.5ft 4s 4s 18 20 mph 1023.7mb 47f
2:50pm 3.5ft 4s 4s 18 20 mph 1023.9mb 47f
1:50pm 3.5ft 7s 4s 18 20 mph 1024.3mb 47f
12:50pm 3.5ft 4s 4s 18 20 mph 1024.6mb 47f
11:50am 3ft 4s 4s 16 20 mph 1024.7mb 47f
10:50am 3.5ft 9s 5s 13 18 mph 1024.7mb 47f
9:50am 3ft 4s 4s 13 16 mph 1024.7mb 47f
8:50am 3.5ft 7s 4s 16 18 mph 1024.7mb 47f
7:50am 3.5ft 8s 5s 16 18 mph 1024.5mb 47f
6:50am 3.5ft 6s 4s 13 16 mph 1024.6mb 47f
5:50am 3.5ft 8s 5s 13 18 mph 1024.7mb 47f
4:50am 4ft 4s 5s 13 16 mph 1024.5mb 47f
3:50am 4.5ft 4s 5s 16 18 mph 1024.7mb 47f
2:50am 4ft 4s 4s 16 20 mph 1025.1mb 47f
1:50am 4ft 4s 5s 18 22 mph 1024.9mb 47f
12:50am 4.5ft 5s 5s 13 16 mph 1024.4mb 47f
Tue 05/19 11:50pm 4.5ft 5s 5s 18 20 mph 1024.3mb 47f
10:50pm 4.5ft 4s 5s 16 20 mph 1024.3mb 47f
9:50pm 4ft 5s 5s 16 18 mph 1024.2mb 47f
8:50pm 4.5ft 5s 4s 18 20 mph 1024.5mb 47f
7:50pm 4.5ft 5s 5s 20 22 mph 1025mb 48f
6:50pm 4ft 5s 4s 18 22 mph 1025mb 48f
5:50pm 4.5ft 4s 5s 20 22 mph 1024.6mb 48f
4:50pm 4ft 8s 5s 18 20 mph 1024.6mb 48f
3:50pm 4ft 8s 5s 16 18 mph 1024.7mb 48f
2:50pm 4ft 5s 4s 16 18 mph 1024.8mb 48f
1:50pm 4ft 10s 5s 16 18 mph 1024.8mb 48f
12:50pm 4ft 11s 5s 13 18 mph 1024.6mb 48f
11:50am 3.5ft 7s 5s 13 16 mph 1024.3mb 49f
10:50am 3.5ft 7s 5s 11 13 mph 1024.2mb 48f
9:50am 3.5ft 10s 5s 11 16 mph 1024.1mb 48f
8:50am 3.5ft 9s 5s 13 16 mph 1024mb 48f
7:50am 3.5ft 8s 5s 11 16 mph 1023.9mb 47f
6:50am 3.5ft 7s 5s 13 16 mph 1023.7mb 47f
5:50am 4ft 8s 6s 11 16 mph 1023.3mb 47f
4:50am 3.5ft 9s 5s 11 16 mph 1023mb 47f
3:50am 4ft 7s 5s 11 13 mph 1022.8mb 47f
2:50am 4ft 8s 5s 11 16 mph 1022.7mb 47f
1:50am 4ft 8s 5s 13 16 mph 1022.8mb 47f
12:50am 4.5ft 8s 5s 13 16 mph 1022.6mb 47f
Mon 05/18 11:50pm 4.5ft 8s 5s 13 18 mph 1022.6mb 47f
10:50pm 4.5ft 8s 5s 13 18 mph 1022.6mb 47f
9:50pm 4.5ft 9s 5s 16 18 mph 1022.6mb 47f
8:50pm 4.5ft 9s 5s 16 18 mph 1022.6mb 48f
7:50pm 4.5ft 9s 6s 16 20 mph 1022.8mb 48f
6:50pm 4.5ft 9s 5s 16 18 mph 1022.6mb 48f
5:50pm 4.5ft 9s 5s 13 18 mph 1022.6mb 47f
4:50pm 4.5ft 9s 5s 13 16 mph 1022.9mb 47f
3:50pm 4.5ft 8s 5s 16 18 mph 1023mb 47f